sensor_id;sensor_type;location;lat;lon;timestamp;temperature;humidity
32293;DHT22;43233;48.608;8.838;2024-01-30T00:01:41;5.00;49.40
32293;DHT22;43233;48.608;8.838;2024-01-30T00:04:07;5.10;50.20
32293;DHT22;43233;48.608;8.838;2024-01-30T00:06:32;5.10;50.70
32293;DHT22;43233;48.608;8.838;2024-01-30T00:08:58;5.10;51.00
32293;DHT22;43233;48.608;8.838;2024-01-30T00:11:24;5.10;51.50
32293;DHT22;43233;48.608;8.838;2024-01-30T00:13:51;5.10;51.90
32293;DHT22;43233;48.608;8.838;2024-01-30T00:16:24;5.20;52.30
32293;DHT22;43233;48.608;8.838;2024-01-30T00:18:50;5.20;52.40
32293;DHT22;43233;48.608;8.838;2024-01-30T00:21:16;5.20;52.70
32293;DHT22;43233;48.608;8.838;2024-01-30T00:23:42;5.20;52.90
32293;DHT22;43233;48.608;8.838;2024-01-30T00:26:07;5.20;52.90
32293;DHT22;43233;48.608;8.838;2024-01-30T00:28:33;5.30;53.00
32293;DHT22;43233;48.608;8.838;2024-01-30T00:30:58;5.30;53.00
32293;DHT22;43233;48.608;8.838;2024-01-30T00:33:24;5.20;52.20
32293;DHT22;43233;48.608;8.838;2024-01-30T00:35:49;5.10;52.10
32293;DHT22;43233;48.608;8.838;2024-01-30T00:38:15;5.10;52.30
32293;DHT22;43233;48.608;8.838;2024-01-30T00:40:41;5.00;52.50
32293;DHT22;43233;48.608;8.838;2024-01-30T00:43:06;5.00;52.40
32293;DHT22;43233;48.608;8.838;2024-01-30T00:45:32;5.00;52.20
32293;DHT22;43233;48.608;8.838;2024-01-30T00:47:58;4.90;52.50
32293;DHT22;43233;48.608;8.838;2024-01-30T00:50:23;4.80;52.60
32293;DHT22;43233;48.608;8.838;2024-01-30T00:52:49;4.80;52.80
32293;DHT22;43233;48.608;8.838;2024-01-30T00:55:15;4.80;53.20
32293;DHT22;43233;48.608;8.838;2024-01-30T00:57:40;4.90;53.80
32293;DHT22;43233;48.608;8.838;2024-01-30T01:00:07;4.90;54.10
32293;DHT22;43233;48.608;8.838;2024-01-30T01:02:35;4.90;54.00
32293;DHT22;43233;48.608;8.838;2024-01-30T01:05:01;4.90;53.70
32293;DHT22;43233;48.608;8.838;2024-01-30T01:07:26;4.90;53.20
32293;DHT22;43233;48.608;8.838;2024-01-30T01:09:52;4.80;52.70
32293;DHT22;43233;48.608;8.838;2024-01-30T01:12:18;4.80;53.60
32293;DHT22;43233;48.608;8.838;2024-01-30T01:14:43;4.80;53.30
32293;DHT22;43233;48.608;8.838;2024-01-30T01:17:09;4.80;53.70
32293;DHT22;43233;48.608;8.838;2024-01-30T01:19:34;4.80;54.10
32293;DHT22;43233;48.608;8.838;2024-01-30T01:22:00;4.80;54.30
32293;DHT22;43233;48.608;8.838;2024-01-30T01:24:26;4.80;54.30
32293;DHT22;43233;48.608;8.838;2024-01-30T01:26:51;4.80;54.20
32293;DHT22;43233;48.608;8.838;2024-01-30T01:29:17;4.80;53.80
32293;DHT22;43233;48.608;8.838;2024-01-30T01:31:42;4.80;53.40
32293;DHT22;43233;48.608;8.838;2024-01-30T01:34:12;4.70;53.20
32293;DHT22;43233;48.608;8.838;2024-01-30T01:36:38;4.60;53.40
32293;DHT22;43233;48.608;8.838;2024-01-30T01:39:04;4.60;53.40
32293;DHT22;43233;48.608;8.838;2024-01-30T01:41:31;4.50;53.60
32293;DHT22;43233;48.608;8.838;2024-01-30T01:44:00;4.50;53.70
32293;DHT22;43233;48.608;8.838;2024-01-30T01:46:31;4.50;53.70
32293;DHT22;43233;48.608;8.838;2024-01-30T01:48:58;4.50;53.40
32293;DHT22;43233;48.608;8.838;2024-01-30T01:51:27;4.40;53.40
32293;DHT22;43233;48.608;8.838;2024-01-30T01:53:56;4.40;54.00
32293;DHT22;43233;48.608;8.838;2024-01-30T01:56:23;4.40;54.40
32293;DHT22;43233;48.608;8.838;2024-01-30T01:58:50;4.40;55.20
32293;DHT22;43233;48.608;8.838;2024-01-30T02:01:19;4.40;55.00
32293;DHT22;43233;48.608;8.838;2024-01-30T02:03:46;4.50;55.20
32293;DHT22;43233;48.608;8.838;2024-01-30T02:06:15;4.50;55.10
32293;DHT22;43233;48.608;8.838;2024-01-30T02:08:41;4.50;55.00
32293;DHT22;43233;48.608;8.838;2024-01-30T02:11:07;4.40;54.60
32293;DHT22;43233;48.608;8.838;2024-01-30T02:13:33;4.40;54.20
32293;DHT22;43233;48.608;8.838;2024-01-30T02:16:00;4.40;53.90
32293;DHT22;43233;48.608;8.838;2024-01-30T02:18:26;4.40;53.90
32293;DHT22;43233;48.608;8.838;2024-01-30T02:20:54;4.30;53.90
32293;DHT22;43233;48.608;8.838;2024-01-30T02:23:20;4.30;53.80
32293;DHT22;43233;48.608;8.838;2024-01-30T02:25:45;4.20;53.50
32293;DHT22;43233;48.608;8.838;2024-01-30T02:28:12;4.10;53.70
32293;DHT22;43233;48.608;8.838;2024-01-30T02:30:45;4.10;53.90
32293;DHT22;43233;48.608;8.838;2024-01-30T02:33:11;4.00;53.90
32293;DHT22;43233;48.608;8.838;2024-01-30T02:35:36;4.00;54.10
32293;DHT22;43233;48.608;8.838;2024-01-30T02:38:02;4.00;54.30
32293;DHT22;43233;48.608;8.838;2024-01-30T02:40:27;3.90;54.30
32293;DHT22;43233;48.608;8.838;2024-01-30T02:42:53;3.90;54.30
32293;DHT22;43233;48.608;8.838;2024-01-30T02:45:19;3.80;54.40
32293;DHT22;43233;48.608;8.838;2024-01-30T02:47:46;3.80;54.70
32293;DHT22;43233;48.608;8.838;2024-01-30T02:50:11;3.80;54.90
32293;DHT22;43233;48.608;8.838;2024-01-30T02:52:37;3.80;54.90
32293;DHT22;43233;48.608;8.838;2024-01-30T02:55:03;3.80;55.30
32293;DHT22;43233;48.608;8.838;2024-01-30T02:57:29;3.80;55.50
32293;DHT22;43233;48.608;8.838;2024-01-30T02:59:55;3.80;55.10
32293;DHT22;43233;48.608;8.838;2024-01-30T03:02:20;3.80;54.80
32293;DHT22;43233;48.608;8.838;2024-01-30T03:04:46;3.80;54.70
32293;DHT22;43233;48.608;8.838;2024-01-30T03:07:12;3.70;54.80
32293;DHT22;43233;48.608;8.838;2024-01-30T03:09:38;3.70;54.70
32293;DHT22;43233;48.608;8.838;2024-01-30T03:12:04;3.70;54.90
32293;DHT22;43233;48.608;8.838;2024-01-30T03:14:31;3.60;55.10
32293;DHT22;43233;48.608;8.838;2024-01-30T03:16:57;3.60;55.20
32293;DHT22;43233;48.608;8.838;2024-01-30T03:19:23;3.60;55.30
32293;DHT22;43233;48.608;8.838;2024-01-30T03:21:49;3.60;55.20
32293;DHT22;43233;48.608;8.838;2024-01-30T03:24:14;3.60;55.10
32293;DHT22;43233;48.608;8.838;2024-01-30T03:26:40;3.60;55.20
32293;DHT22;43233;48.608;8.838;2024-01-30T03:29:06;3.60;55.30
32293;DHT22;43233;48.608;8.838;2024-01-30T03:31:32;3.50;55.40
32293;DHT22;43233;48.608;8.838;2024-01-30T03:33:57;3.50;55.50
32293;DHT22;43233;48.608;8.838;2024-01-30T03:36:23;3.50;55.60
32293;DHT22;43233;48.608;8.838;2024-01-30T03:38:49;3.50;55.70
32293;DHT22;43233;48.608;8.838;2024-01-30T03:41:14;3.50;55.90
32293;DHT22;43233;48.608;8.838;2024-01-30T03:43:40;3.50;55.90
32293;DHT22;43233;48.608;8.838;2024-01-30T03:46:06;3.50;55.80
32293;DHT22;43233;48.608;8.838;2024-01-30T03:48:32;3.50;55.60
32293;DHT22;43233;48.608;8.838;2024-01-30T03:50:57;3.50;55.60
32293;DHT22;43233;48.608;8.838;2024-01-30T03:53:23;3.50;55.40
32293;DHT22;43233;48.608;8.838;2024-01-30T03:55:48;3.50;55.50
32293;DHT22;43233;48.608;8.838;2024-01-30T03:58:14;3.50;55.50
32293;DHT22;43233;48.608;8.838;2024-01-30T04:00:40;3.50;55.60
32293;DHT22;43233;48.608;8.838;2024-01-30T04:03:06;3.50;55.30
32293;DHT22;43233;48.608;8.838;2024-01-30T04:05:33;3.50;54.90
32293;DHT22;43233;48.608;8.838;2024-01-30T04:07:59;3.40;54.80
32293;DHT22;43233;48.608;8.838;2024-01-30T04:10:24;3.40;54.90
32293;DHT22;43233;48.608;8.838;2024-01-30T04:12:51;3.40;55.00
32293;DHT22;43233;48.608;8.838;2024-01-30T04:15:17;3.40;55.20
32293;DHT22;43233;48.608;8.838;2024-01-30T04:17:43;3.50;55.40
32293;DHT22;43233;48.608;8.838;2024-01-30T04:20:16;3.60;55.30
32293;DHT22;43233;48.608;8.838;2024-01-30T04:22:45;3.70;55.00
32293;DHT22;43233;48.608;8.838;2024-01-30T04:25:12;3.80;54.30
32293;DHT22;43233;48.608;8.838;2024-01-30T04:27:38;3.80;54.10
32293;DHT22;43233;48.608;8.838;2024-01-30T04:30:04;3.80;53.90
32293;DHT22;43233;48.608;8.838;2024-01-30T04:32:29;3.90;53.80
32293;DHT22;43233;48.608;8.838;2024-01-30T04:34:55;3.90;53.60
32293;DHT22;43233;48.608;8.838;2024-01-30T04:37:21;3.90;53.60
32293;DHT22;43233;48.608;8.838;2024-01-30T04:39:46;4.00;53.50
32293;DHT22;43233;48.608;8.838;2024-01-30T04:42:12;4.10;53.40
32293;DHT22;43233;48.608;8.838;2024-01-30T04:44:38;4.10;53.40
32293;DHT22;43233;48.608;8.838;2024-01-30T04:47:04;4.10;53.30
32293;DHT22;43233;48.608;8.838;2024-01-30T04:49:31;4.10;53.30
32293;DHT22;43233;48.608;8.838;2024-01-30T04:51:57;4.10;53.30
32293;DHT22;43233;48.608;8.838;2024-01-30T04:54:23;4.00;52.90
32293;DHT22;43233;48.608;8.838;2024-01-30T04:56:48;3.90;53.00
32293;DHT22;43233;48.608;8.838;2024-01-30T04:59:14;3.90;53.30
32293;DHT22;43233;48.608;8.838;2024-01-30T05:01:40;3.80;53.60
32293;DHT22;43233;48.608;8.838;2024-01-30T05:04:08;3.90;54.00
32293;DHT22;43233;48.608;8.838;2024-01-30T05:06:34;3.90;54.10
32293;DHT22;43233;48.608;8.838;2024-01-30T05:09:00;3.90;54.20
32293;DHT22;43233;48.608;8.838;2024-01-30T05:11:25;3.90;54.10
32293;DHT22;43233;48.608;8.838;2024-01-30T05:13:51;3.90;54.10
32293;DHT22;43233;48.608;8.838;2024-01-30T05:16:17;3.90;53.90
32293;DHT22;43233;48.608;8.838;2024-01-30T05:18:43;3.90;54.00
32293;DHT22;43233;48.608;8.838;2024-01-30T05:21:09;3.90;54.10
32293;DHT22;43233;48.608;8.838;2024-01-30T05:23:35;3.90;54.20
32293;DHT22;43233;48.608;8.838;2024-01-30T05:26:01;3.90;54.00
32293;DHT22;43233;48.608;8.838;2024-01-30T05:28:29;3.80;53.80
32293;DHT22;43233;48.608;8.838;2024-01-30T05:30:55;3.80;53.90
32293;DHT22;43233;48.608;8.838;2024-01-30T05:33:20;3.70;54.30
32293;DHT22;43233;48.608;8.838;2024-01-30T05:35:46;3.60;54.70
32293;DHT22;43233;48.608;8.838;2024-01-30T05:38:12;3.60;55.20
32293;DHT22;43233;48.608;8.838;2024-01-30T05:40:38;3.60;55.70
32293;DHT22;43233;48.608;8.838;2024-01-30T05:43:03;3.60;56.00
32293;DHT22;43233;48.608;8.838;2024-01-30T05:45:29;3.50;56.30
32293;DHT22;43233;48.608;8.838;2024-01-30T05:47:54;3.50;56.40
32293;DHT22;43233;48.608;8.838;2024-01-30T05:50:20;3.50;56.20
32293;DHT22;43233;48.608;8.838;2024-01-30T05:52:48;3.50;56.10
32293;DHT22;43233;48.608;8.838;2024-01-30T05:55:14;3.50;56.80
32293;DHT22;43233;48.608;8.838;2024-01-30T05:57:40;3.50;56.50
32293;DHT22;43233;48.608;8.838;2024-01-30T06:00:06;3.50;56.20
32293;DHT22;43233;48.608;8.838;2024-01-30T06:02:32;3.40;55.80
32293;DHT22;43233;48.608;8.838;2024-01-30T06:04:58;3.40;55.60
32293;DHT22;43233;48.608;8.838;2024-01-30T06:07:24;3.30;55.60
32293;DHT22;43233;48.608;8.838;2024-01-30T06:09:49;3.30;55.70
32293;DHT22;43233;48.608;8.838;2024-01-30T06:12:15;3.30;55.70
32293;DHT22;43233;48.608;8.838;2024-01-30T06:14:41;3.30;55.80
32293;DHT22;43233;48.608;8.838;2024-01-30T06:17:08;3.20;56.00
32293;DHT22;43233;48.608;8.838;2024-01-30T06:19:34;3.20;55.90
32293;DHT22;43233;48.608;8.838;2024-01-30T06:21:59;3.10;56.00
32293;DHT22;43233;48.608;8.838;2024-01-30T06:24:25;3.10;56.20
32293;DHT22;43233;48.608;8.838;2024-01-30T06:26:51;3.10;56.40
32293;DHT22;43233;48.608;8.838;2024-01-30T06:29:17;3.10;56.40
32293;DHT22;43233;48.608;8.838;2024-01-30T06:31:43;3.20;56.50
32293;DHT22;43233;48.608;8.838;2024-01-30T06:34:09;3.20;56.40
32293;DHT22;43233;48.608;8.838;2024-01-30T06:36:36;3.20;56.20
32293;DHT22;43233;48.608;8.838;2024-01-30T06:39:03;3.20;56.20
32293;DHT22;43233;48.608;8.838;2024-01-30T06:41:28;3.20;56.10
32293;DHT22;43233;48.608;8.838;2024-01-30T06:43:55;3.20;56.00
32293;DHT22;43233;48.608;8.838;2024-01-30T06:46:21;3.20;55.70
32293;DHT22;43233;48.608;8.838;2024-01-30T06:48:46;3.20;56.00
32293;DHT22;43233;48.608;8.838;2024-01-30T06:51:12;3.20;55.90
32293;DHT22;43233;48.608;8.838;2024-01-30T06:53:38;3.20;56.10
32293;DHT22;43233;48.608;8.838;2024-01-30T06:56:04;3.20;56.60
32293;DHT22;43233;48.608;8.838;2024-01-30T06:58:29;3.20;56.50
32293;DHT22;43233;48.608;8.838;2024-01-30T07:00:56;3.30;56.50
32293;DHT22;43233;48.608;8.838;2024-01-30T07:03:21;3.30;56.20
32293;DHT22;43233;48.608;8.838;2024-01-30T07:05:47;3.30;56.00
32293;DHT22;43233;48.608;8.838;2024-01-30T07:08:13;3.30;56.10
32293;DHT22;43233;48.608;8.838;2024-01-30T07:10:38;3.30;56.30
32293;DHT22;43233;48.608;8.838;2024-01-30T07:13:04;3.30;56.30
32293;DHT22;43233;48.608;8.838;2024-01-30T07:15:31;3.40;56.30
32293;DHT22;43233;48.608;8.838;2024-01-30T07:17:57;3.40;56.20
32293;DHT22;43233;48.608;8.838;2024-01-30T07:20:22;3.50;56.20
32293;DHT22;43233;48.608;8.838;2024-01-30T07:22:49;3.60;55.90
32293;DHT22;43233;48.608;8.838;2024-01-30T07:25:15;3.60;55.70
32293;DHT22;43233;48.608;8.838;2024-01-30T07:27:42;3.60;55.50
32293;DHT22;43233;48.608;8.838;2024-01-30T07:30:08;3.60;55.30
32293;DHT22;43233;48.608;8.838;2024-01-30T07:32:33;3.60;55.30
32293;DHT22;43233;48.608;8.838;2024-01-30T07:34:59;3.60;55.50
32293;DHT22;43233;48.608;8.838;2024-01-30T07:37:24;3.60;55.40
32293;DHT22;43233;48.608;8.838;2024-01-30T07:39:50;3.70;55.40
32293;DHT22;43233;48.608;8.838;2024-01-30T07:42:15;3.70;55.50
32293;DHT22;43233;48.608;8.838;2024-01-30T07:44:43;3.80;55.40
32293;DHT22;43233;48.608;8.838;2024-01-30T07:47:08;3.90;55.10
32293;DHT22;43233;48.608;8.838;2024-01-30T07:49:34;4.00;54.80
32293;DHT22;43233;48.608;8.838;2024-01-30T07:52:00;4.20;54.70
32293;DHT22;43233;48.608;8.838;2024-01-30T07:54:25;4.40;54.40
32293;DHT22;43233;48.608;8.838;2024-01-30T07:56:51;4.60;53.90
32293;DHT22;43233;48.608;8.838;2024-01-30T07:59:17;4.70;53.20
32293;DHT22;43233;48.608;8.838;2024-01-30T08:01:44;4.90;53.00
32293;DHT22;43233;48.608;8.838;2024-01-30T08:04:09;5.10;52.20
32293;DHT22;43233;48.608;8.838;2024-01-30T08:06:35;5.30;50.20
32293;DHT22;43233;48.608;8.838;2024-01-30T08:09:00;5.40;50.20
32293;DHT22;43233;48.608;8.838;2024-01-30T08:11:26;5.60;50.00
32293;DHT22;43233;48.608;8.838;2024-01-30T08:13:53;5.80;49.80
32293;DHT22;43233;48.608;8.838;2024-01-30T08:16:19;5.90;49.40
32293;DHT22;43233;48.608;8.838;2024-01-30T08:18:45;6.10;49.10
32293;DHT22;43233;48.608;8.838;2024-01-30T08:21:11;6.30;47.90
32293;DHT22;43233;48.608;8.838;2024-01-30T08:23:38;6.50;46.50
32293;DHT22;43233;48.608;8.838;2024-01-30T08:26:04;6.60;44.40
32293;DHT22;43233;48.608;8.838;2024-01-30T08:28:30;6.50;44.70
32293;DHT22;43233;48.608;8.838;2024-01-30T08:30:56;6.40;44.80
32293;DHT22;43233;48.608;8.838;2024-01-30T08:33:21;6.30;45.00
32293;DHT22;43233;48.608;8.838;2024-01-30T08:35:47;6.20;45.50
32293;DHT22;43233;48.608;8.838;2024-01-30T08:38:13;6.00;45.70
32293;DHT22;43233;48.608;8.838;2024-01-30T08:40:38;6.10;45.80
32293;DHT22;43233;48.608;8.838;2024-01-30T08:43:04;6.00;45.90
32293;DHT22;43233;48.608;8.838;2024-01-30T08:45:29;6.00;46.30
32293;DHT22;43233;48.608;8.838;2024-01-30T08:47:56;6.00;46.70
32293;DHT22;43233;48.608;8.838;2024-01-30T08:50:22;6.10;47.00
32293;DHT22;43233;48.608;8.838;2024-01-30T08:52:47;6.20;46.80
32293;DHT22;43233;48.608;8.838;2024-01-30T08:55:13;6.50;46.50
32293;DHT22;43233;48.608;8.838;2024-01-30T08:57:39;6.70;45.50
32293;DHT22;43233;48.608;8.838;2024-01-30T09:00:05;7.10;44.70
32293;DHT22;43233;48.608;8.838;2024-01-30T09:02:32;7.30;44.00
32293;DHT22;43233;48.608;8.838;2024-01-30T09:04:58;7.40;43.00
32293;DHT22;43233;48.608;8.838;2024-01-30T09:07:24;7.50;42.60
32293;DHT22;43233;48.608;8.838;2024-01-30T09:09:49;7.60;42.20
32293;DHT22;43233;48.608;8.838;2024-01-30T09:12:15;7.60;42.00
32293;DHT22;43233;48.608;8.838;2024-01-30T09:14:41;7.50;42.60
32293;DHT22;43233;48.608;8.838;2024-01-30T09:17:07;7.30;43.40
32293;DHT22;43233;48.608;8.838;2024-01-30T09:19:33;7.20;43.80
32293;DHT22;43233;48.608;8.838;2024-01-30T09:21:59;7.00;44.70
32293;DHT22;43233;48.608;8.838;2024-01-30T09:24:26;7.00;44.60
32293;DHT22;43233;48.608;8.838;2024-01-30T09:26:52;6.90;45.10
32293;DHT22;43233;48.608;8.838;2024-01-30T09:29:17;6.90;45.60
32293;DHT22;43233;48.608;8.838;2024-01-30T09:31:47;6.80;45.70
32293;DHT22;43233;48.608;8.838;2024-01-30T09:34:13;6.70;46.10
32293;DHT22;43233;48.608;8.838;2024-01-30T09:36:39;6.70;46.40
32293;DHT22;43233;48.608;8.838;2024-01-30T09:39:05;6.60;46.50
32293;DHT22;43233;48.608;8.838;2024-01-30T09:41:33;6.60;46.70
32293;DHT22;43233;48.608;8.838;2024-01-30T09:44:01;6.60;46.90
32293;DHT22;43233;48.608;8.838;2024-01-30T09:46:30;6.50;47.50
32293;DHT22;43233;48.608;8.838;2024-01-30T09:48:57;6.60;47.90
32293;DHT22;43233;48.608;8.838;2024-01-30T09:51:24;6.60;48.00
32293;DHT22;43233;48.608;8.838;2024-01-30T09:53:50;6.70;48.00
32293;DHT22;43233;48.608;8.838;2024-01-30T09:56:16;6.80;47.70
32293;DHT22;43233;48.608;8.838;2024-01-30T09:58:42;6.90;48.00
32293;DHT22;43233;48.608;8.838;2024-01-30T10:01:08;6.90;47.00
32293;DHT22;43233;48.608;8.838;2024-01-30T10:03:33;7.00;46.70
32293;DHT22;43233;48.608;8.838;2024-01-30T10:05:59;7.00;46.90
32293;DHT22;43233;48.608;8.838;2024-01-30T10:08:26;7.10;47.20
32293;DHT22;43233;48.608;8.838;2024-01-30T10:10:52;7.10;46.90
32293;DHT22;43233;48.608;8.838;2024-01-30T10:13:18;7.20;47.50
32293;DHT22;43233;48.608;8.838;2024-01-30T10:15:44;7.20;46.40
32293;DHT22;43233;48.608;8.838;2024-01-30T10:18:10;7.30;46.60
32293;DHT22;43233;48.608;8.838;2024-01-30T10:20:36;7.40;46.80
32293;DHT22;43233;48.608;8.838;2024-01-30T10:23:02;7.50;47.10
32293;DHT22;43233;48.608;8.838;2024-01-30T10:25:29;7.70;47.30
32293;DHT22;43233;48.608;8.838;2024-01-30T10:27:56;7.90;47.50
32293;DHT22;43233;48.608;8.838;2024-01-30T10:30:22;8.10;46.50
32293;DHT22;43233;48.608;8.838;2024-01-30T10:32:48;8.40;45.20
32293;DHT22;43233;48.608;8.838;2024-01-30T10:35:14;8.60;44.10
32293;DHT22;43233;48.608;8.838;2024-01-30T10:37:41;8.80;42.80
32293;DHT22;43233;48.608;8.838;2024-01-30T10:40:09;9.10;40.30
32293;DHT22;43233;48.608;8.838;2024-01-30T10:42:42;9.30;38.80
32293;DHT22;43233;48.608;8.838;2024-01-30T10:45:09;9.60;37.30
32293;DHT22;43233;48.608;8.838;2024-01-30T10:47:36;9.90;36.90
32293;DHT22;43233;48.608;8.838;2024-01-30T10:50:02;10.10;35.40
32293;DHT22;43233;48.608;8.838;2024-01-30T10:52:32;10.30;35.10
32293;DHT22;43233;48.608;8.838;2024-01-30T10:54:58;10.40;34.80
32293;DHT22;43233;48.608;8.838;2024-01-30T10:57:25;10.50;35.20
32293;DHT22;43233;48.608;8.838;2024-01-30T10:59:53;10.40;35.00
32293;DHT22;43233;48.608;8.838;2024-01-30T11:02:20;10.40;35.40
32293;DHT22;43233;48.608;8.838;2024-01-30T11:04:46;10.30;35.70
32293;DHT22;43233;48.608;8.838;2024-01-30T11:07:24;10.20;36.10
32293;DHT22;43233;48.608;8.838;2024-01-30T11:12:24;10.30;35.80
32293;DHT22;43233;48.608;8.838;2024-01-30T11:17:43;10.40;35.50
32293;DHT22;43233;48.608;8.838;2024-01-30T11:20:32;10.30;35.40
32293;DHT22;43233;48.608;8.838;2024-01-30T11:22:58;10.20;35.50
32293;DHT22;43233;48.608;8.838;2024-01-30T11:25:25;10.10;37.00
32293;DHT22;43233;48.608;8.838;2024-01-30T11:27:54;10.00;37.10
32293;DHT22;43233;48.608;8.838;2024-01-30T11:30:28;10.00;37.80
32293;DHT22;43233;48.608;8.838;2024-01-30T11:35:43;9.90;38.20
32293;DHT22;43233;48.608;8.838;2024-01-30T11:38:13;9.80;38.80
32293;DHT22;43233;48.608;8.838;2024-01-30T11:40:40;9.70;38.90
32293;DHT22;43233;48.608;8.838;2024-01-30T11:43:07;9.70;39.50
32293;DHT22;43233;48.608;8.838;2024-01-30T11:45:33;9.70;40.50
32293;DHT22;43233;48.608;8.838;2024-01-30T11:47:59;9.70;40.60
32293;DHT22;43233;48.608;8.838;2024-01-30T11:50:27;9.80;40.20
32293;DHT22;43233;48.608;8.838;2024-01-30T11:52:54;9.90;40.20
32293;DHT22;43233;48.608;8.838;2024-01-30T11:55:20;9.90;40.30
32293;DHT22;43233;48.608;8.838;2024-01-30T11:57:46;10.00;40.10
32293;DHT22;43233;48.608;8.838;2024-01-30T12:00:15;10.10;39.60
32293;DHT22;43233;48.608;8.838;2024-01-30T12:02:42;10.20;39.00
32293;DHT22;43233;48.608;8.838;2024-01-30T12:05:08;10.40;38.80
32293;DHT22;43233;48.608;8.838;2024-01-30T12:07:34;10.60;37.20
32293;DHT22;43233;48.608;8.838;2024-01-30T12:10:00;10.70;36.80
32293;DHT22;43233;48.608;8.838;2024-01-30T12:12:27;10.90;36.10
32293;DHT22;43233;48.608;8.838;2024-01-30T12:14:53;11.10;36.10
32293;DHT22;43233;48.608;8.838;2024-01-30T12:17:32;11.30;35.80
32293;DHT22;43233;48.608;8.838;2024-01-30T12:22:38;11.90;34.10
32293;DHT22;43233;48.608;8.838;2024-01-30T12:25:07;12.00;33.40
32293;DHT22;43233;48.608;8.838;2024-01-30T12:27:33;12.50;33.50
32293;DHT22;43233;48.608;8.838;2024-01-30T12:29:59;13.00;32.80
32293;DHT22;43233;48.608;8.838;2024-01-30T12:32:25;13.60;31.40
32293;DHT22;43233;48.608;8.838;2024-01-30T12:34:54;14.20;29.30
32293;DHT22;43233;48.608;8.838;2024-01-30T12:37:20;14.90;28.00
32293;DHT22;43233;48.608;8.838;2024-01-30T12:39:48;15.80;26.40
32293;DHT22;43233;48.608;8.838;2024-01-30T12:42:14;16.30;24.30
32293;DHT22;43233;48.608;8.838;2024-01-30T12:44:41;16.70;23.70
32293;DHT22;43233;48.608;8.838;2024-01-30T12:47:09;16.90;23.30
32293;DHT22;43233;48.608;8.838;2024-01-30T12:49:35;17.30;23.20
32293;DHT22;43233;48.608;8.838;2024-01-30T12:52:00;17.90;22.80
32293;DHT22;43233;48.608;8.838;2024-01-30T12:54:26;18.70;21.70
32293;DHT22;43233;48.608;8.838;2024-01-30T12:56:52;19.50;20.80
32293;DHT22;43233;48.608;8.838;2024-01-30T12:59:18;20.10;19.60
32293;DHT22;43233;48.608;8.838;2024-01-30T13:01:43;20.10;19.10
32293;DHT22;43233;48.608;8.838;2024-01-30T13:04:09;19.90;19.00
32293;DHT22;43233;48.608;8.838;2024-01-30T13:06:35;19.80;18.90
32293;DHT22;43233;48.608;8.838;2024-01-30T13:09:00;20.00;18.90
32293;DHT22;43233;48.608;8.838;2024-01-30T13:11:26;20.10;18.70
32293;DHT22;43233;48.608;8.838;2024-01-30T13:13:51;20.20;18.90
32293;DHT22;43233;48.608;8.838;2024-01-30T13:16:17;20.50;18.90
32293;DHT22;43233;48.608;8.838;2024-01-30T13:18:43;20.80;18.70
32293;DHT22;43233;48.608;8.838;2024-01-30T13:21:09;21.10;17.70
32293;DHT22;43233;48.608;8.838;2024-01-30T13:23:35;21.40;18.00
32293;DHT22;43233;48.608;8.838;2024-01-30T13:26:00;21.70;17.30
32293;DHT22;43233;48.608;8.838;2024-01-30T13:28:26;21.60;17.40
32293;DHT22;43233;48.608;8.838;2024-01-30T13:30:52;21.00;17.50
32293;DHT22;43233;48.608;8.838;2024-01-30T13:33:17;20.10;18.40
32293;DHT22;43233;48.608;8.838;2024-01-30T13:35:43;19.10;19.30
32293;DHT22;43233;48.608;8.838;2024-01-30T13:38:09;18.60;20.50
32293;DHT22;43233;48.608;8.838;2024-01-30T13:40:34;18.20;20.60
32293;DHT22;43233;48.608;8.838;2024-01-30T13:43:00;17.90;21.50
32293;DHT22;43233;48.608;8.838;2024-01-30T13:45:25;17.40;22.20
32293;DHT22;43233;48.608;8.838;2024-01-30T13:47:51;16.70;23.70
32293;DHT22;43233;48.608;8.838;2024-01-30T13:50:17;16.10;25.00
32293;DHT22;43233;48.608;8.838;2024-01-30T13:52:43;15.70;25.60
32293;DHT22;43233;48.608;8.838;2024-01-30T13:55:09;15.30;26.10
32293;DHT22;43233;48.608;8.838;2024-01-30T13:57:36;15.10;26.90
32293;DHT22;43233;48.608;8.838;2024-01-30T14:00:03;14.80;27.20
32293;DHT22;43233;48.608;8.838;2024-01-30T14:02:32;14.50;28.10
32293;DHT22;43233;48.608;8.838;2024-01-30T14:04:58;14.30;28.80
32293;DHT22;43233;48.608;8.838;2024-01-30T14:07:23;14.10;29.60
32293;DHT22;43233;48.608;8.838;2024-01-30T14:09:49;14.00;30.10
32293;DHT22;43233;48.608;8.838;2024-01-30T14:12:15;14.00;30.60
32293;DHT22;43233;48.608;8.838;2024-01-30T14:14:41;13.90;30.50
32293;DHT22;43233;48.608;8.838;2024-01-30T14:17:06;13.90;30.70
32293;DHT22;43233;48.608;8.838;2024-01-30T14:19:33;13.80;31.30
32293;DHT22;43233;48.608;8.838;2024-01-30T14:21:59;13.70;31.70
32293;DHT22;43233;48.608;8.838;2024-01-30T14:24:25;13.60;31.50
32293;DHT22;43233;48.608;8.838;2024-01-30T14:26:50;13.60;31.70
32293;DHT22;43233;48.608;8.838;2024-01-30T14:29:16;13.60;31.80
32293;DHT22;43233;48.608;8.838;2024-01-30T14:31:42;13.60;31.90
32293;DHT22;43233;48.608;8.838;2024-01-30T14:34:07;13.60;32.30
32293;DHT22;43233;48.608;8.838;2024-01-30T14:36:34;13.60;32.20
32293;DHT22;43233;48.608;8.838;2024-01-30T14:38:59;13.60;32.40
32293;DHT22;43233;48.608;8.838;2024-01-30T14:41:25;13.50;32.30
32293;DHT22;43233;48.608;8.838;2024-01-30T14:43:51;13.40;32.60
32293;DHT22;43233;48.608;8.838;2024-01-30T14:46:16;13.40;33.00
32293;DHT22;43233;48.608;8.838;2024-01-30T14:48:42;13.30;33.40
32293;DHT22;43233;48.608;8.838;2024-01-30T14:51:08;13.30;33.80
32293;DHT22;43233;48.608;8.838;2024-01-30T14:53:34;13.20;33.80
32293;DHT22;43233;48.608;8.838;2024-01-30T14:55:59;13.20;34.00
32293;DHT22;43233;48.608;8.838;2024-01-30T14:58:25;13.20;33.90
32293;DHT22;43233;48.608;8.838;2024-01-30T15:00:51;13.10;33.40
32293;DHT22;43233;48.608;8.838;2024-01-30T15:03:16;13.10;34.00
32293;DHT22;43233;48.608;8.838;2024-01-30T15:05:42;13.10;33.80
32293;DHT22;43233;48.608;8.838;2024-01-30T15:08:07;13.00;33.20
32293;DHT22;43233;48.608;8.838;2024-01-30T15:10:33;12.90;33.30
32293;DHT22;43233;48.608;8.838;2024-01-30T15:12:59;12.90;33.20
32293;DHT22;43233;48.608;8.838;2024-01-30T15:15:24;12.80;33.90
32293;DHT22;43233;48.608;8.838;2024-01-30T15:17:50;12.80;33.90
32293;DHT22;43233;48.608;8.838;2024-01-30T15:20:16;12.70;34.10
32293;DHT22;43233;48.608;8.838;2024-01-30T15:22:43;12.60;33.70
32293;DHT22;43233;48.608;8.838;2024-01-30T15:25:10;12.60;33.80
32293;DHT22;43233;48.608;8.838;2024-01-30T15:27:36;12.60;33.90
32293;DHT22;43233;48.608;8.838;2024-01-30T15:30:02;12.60;34.00
32293;DHT22;43233;48.608;8.838;2024-01-30T15:32:28;12.50;33.80
32293;DHT22;43233;48.608;8.838;2024-01-30T15:34:54;12.50;33.80
32293;DHT22;43233;48.608;8.838;2024-01-30T15:37:22;12.50;33.80
32293;DHT22;43233;48.608;8.838;2024-01-30T15:39:47;12.50;33.90
32293;DHT22;43233;48.608;8.838;2024-01-30T15:42:13;12.50;34.30
32293;DHT22;43233;48.608;8.838;2024-01-30T15:44:39;12.40;34.90
32293;DHT22;43233;48.608;8.838;2024-01-30T15:47:04;12.40;34.90